createdAt,value
2018-08-31T00:01:24.866Z,6.03
2018-08-31T00:06:47.015Z,6.77
2018-08-31T00:11:57.887Z,6.20
2018-08-31T00:16:52.944Z,7.03
2018-08-31T00:21:47.748Z,6.50
2018-08-31T00:26:59.201Z,6.40
2018-08-31T00:37:16.748Z,7.20
2018-08-31T00:45:35.445Z,7.60
2018-08-31T00:50:30.759Z,6.70
2018-08-31T00:55:25.616Z,7.23
2018-08-31T01:00:21.049Z,7.20
2018-08-31T01:05:16.282Z,7.50
2018-08-31T01:10:11.152Z,7.47
2018-08-31T01:15:06.132Z,7.40
2018-08-31T01:20:00.956Z,7.43
2018-08-31T01:24:55.802Z,7.70
2018-08-31T01:29:50.669Z,7.13
2018-08-31T01:34:45.574Z,7.67
2018-08-31T01:39:40.399Z,7.27
2018-08-31T01:44:35.227Z,8.60
2018-08-31T01:49:30.098Z,8.87
2018-08-31T01:54:24.970Z,7.80
2018-08-31T01:59:19.803Z,8.43
2018-08-31T02:04:14.738Z,8.30
2018-08-31T02:09:14.726Z,7.97
2018-08-31T02:14:09.534Z,7.57
2018-08-31T02:19:04.468Z,8.40
2018-08-31T02:23:59.565Z,8.03
2018-08-31T02:28:54.426Z,8.50
2018-08-31T02:33:49.244Z,7.50
2018-08-31T02:38:44.075Z,8.30
2018-08-31T02:43:38.958Z,7.87
2018-08-31T02:48:34.488Z,8.23
2018-08-31T02:53:29.304Z,8.17
2018-08-31T02:58:24.119Z,7.53
2018-08-31T03:03:19.231Z,8.27
2018-08-31T03:08:14.049Z,7.67
2018-08-31T03:13:08.854Z,8.10
2018-08-31T03:18:03.692Z,8.53
2018-08-31T03:22:58.494Z,8.87
2018-08-31T03:27:53.344Z,8.43
2018-08-31T03:32:48.109Z,8.90
2018-08-31T03:37:42.926Z,8.57
2018-08-31T03:42:37.754Z,8.30
2018-08-31T03:47:32.575Z,7.13
2018-08-31T03:52:27.365Z,8.17
2018-08-31T03:57:22.241Z,8.43
2018-08-31T04:02:17.032Z,8.10
2018-08-31T04:07:12.018Z,8.40
2018-08-31T04:12:06.856Z,9.07
2018-08-31T04:17:01.687Z,9.00
2018-08-31T04:21:56.556Z,10.40
2018-08-31T04:26:51.402Z,10.37
2018-08-31T04:31:46.279Z,10.33
2018-08-31T04:36:42.001Z,10.93
2018-08-31T04:41:36.833Z,10.63
2018-08-31T04:46:31.778Z,10.97
2018-08-31T04:51:26.556Z,11.00
2018-08-31T04:56:21.422Z,11.37
2018-08-31T05:01:16.231Z,12.93
2018-08-31T05:06:11.083Z,12.40
2018-08-31T05:11:06.009Z,12.17
2018-08-31T05:16:00.969Z,12.47
2018-08-31T05:20:55.792Z,12.93
2018-08-31T05:25:50.621Z,13.67
2018-08-31T05:30:45.433Z,13.93
2018-08-31T05:35:40.274Z,14.50
2018-08-31T05:40:35.068Z,14.93
2018-08-31T05:45:29.871Z,13.80
2018-08-31T05:50:24.781Z,16.23
2018-08-31T05:55:19.625Z,15.30
2018-08-31T06:00:14.528Z,16.07
2018-08-31T06:05:10.362Z,14.27
2018-08-31T06:10:05.393Z,14.50
2018-08-31T06:15:00.466Z,13.60
2018-08-31T06:19:55.346Z,16.00
2018-08-31T06:24:50.261Z,16.67
2018-08-31T06:29:45.067Z,16.73
2018-08-31T06:34:39.873Z,16.23
2018-08-31T06:39:34.726Z,16.33
2018-08-31T06:44:29.547Z,14.60
2018-08-31T06:49:24.434Z,13.70
2018-08-31T06:54:19.421Z,15.17
2018-08-31T06:59:14.280Z,14.50
2018-08-31T07:04:09.105Z,14.17
2018-08-31T07:09:04.826Z,14.67
2018-08-31T07:13:59.692Z,13.37
2018-08-31T07:18:54.598Z,14.30
2018-08-31T07:23:49.457Z,14.13
2018-08-31T07:28:44.364Z,15.33
2018-08-31T07:33:39.261Z,15.87
2018-08-31T07:38:34.274Z,14.17
2018-08-31T07:43:29.346Z,14.43
2018-08-31T07:48:24.231Z,14.60
2018-08-31T07:53:19.156Z,14.50
2018-08-31T07:58:14.142Z,13.53
2018-08-31T08:03:09.143Z,16.20
2018-08-31T08:08:04.080Z,15.13
2018-08-31T08:12:59.196Z,14.77
2018-08-31T08:17:54.089Z,15.33
2018-08-31T08:22:49.044Z,15.00
2018-08-31T08:27:44.038Z,15.10
2018-08-31T08:32:38.980Z,14.73
2018-08-31T08:37:33.974Z,14.50
2018-08-31T08:42:29.002Z,14.23
2018-08-31T08:47:23.942Z,12.23
2018-08-31T08:52:18.836Z,12.63
2018-08-31T08:57:15.242Z,12.20
2018-08-31T09:02:10.411Z,12.03
2018-08-31T09:07:05.422Z,12.00
2018-08-31T09:12:00.485Z,11.30
2018-08-31T09:16:55.282Z,11.97
2018-08-31T09:21:50.186Z,10.53
2018-08-31T09:26:45.174Z,10.90
2018-08-31T09:31:40.128Z,11.23
2018-08-31T09:36:35.324Z,9.93
2018-08-31T09:41:30.184Z,11.27
2018-08-31T09:46:25.132Z,11.50
2018-08-31T09:51:20.081Z,10.20
2018-08-31T09:56:14.968Z,9.23
2018-08-31T10:01:15.013Z,11.27
2018-08-31T10:06:09.845Z,11.30
2018-08-31T10:11:04.821Z,11.83
2018-08-31T10:15:59.797Z,12.07
2018-08-31T10:20:54.708Z,11.70
2018-08-31T10:25:49.594Z,10.50
2018-08-31T10:30:44.649Z,10.47
2018-08-31T10:35:39.919Z,11.67
2018-08-31T10:40:34.998Z,14.10
2018-08-31T10:45:29.939Z,15.83
2018-08-31T10:50:24.881Z,12.37
2018-08-31T10:55:19.867Z,11.70
2018-08-31T11:00:14.788Z,10.73
2018-08-31T11:05:09.678Z,12.33
2018-08-31T11:10:04.631Z,12.27
2018-08-31T11:14:59.538Z,11.30
2018-08-31T11:19:54.433Z,11.67
2018-08-31T11:24:49.348Z,11.77
2018-08-31T11:29:44.204Z,12.03
2018-08-31T11:34:39.043Z,11.40
2018-08-31T11:39:33.972Z,11.67
2018-08-31T11:44:28.902Z,10.77
2018-08-31T11:49:23.813Z,12.40
2018-08-31T11:54:18.658Z,13.00
2018-08-31T11:59:13.546Z,13.13
2018-08-31T12:04:08.456Z,11.03
2018-08-31T12:09:03.422Z,11.87
2018-08-31T12:13:58.281Z,11.90
2018-08-31T12:18:53.135Z,11.70
2018-08-31T12:23:48.013Z,12.00
2018-08-31T12:28:42.926Z,10.67
2018-08-31T12:33:37.813Z,13.60
2018-08-31T12:38:32.701Z,10.20
2018-08-31T12:43:27.675Z,12.80
2018-08-31T12:48:22.578Z,11.27
2018-08-31T12:53:17.507Z,10.90
2018-08-31T12:58:12.439Z,11.03
2018-08-31T13:03:07.433Z,11.67
2018-08-31T13:08:02.403Z,11.60
2018-08-31T13:12:57.494Z,10.97
2018-08-31T13:17:52.457Z,10.93
2018-08-31T13:22:47.582Z,9.67
2018-08-31T13:27:42.454Z,9.13
2018-08-31T13:32:37.325Z,9.33
2018-08-31T13:37:32.265Z,8.83
2018-08-31T13:42:27.221Z,8.40
2018-08-31T13:47:22.125Z,7.47
2018-08-31T13:52:17.270Z,8.13
2018-08-31T13:57:12.105Z,9.70
2018-08-31T14:02:08.276Z,9.17
2018-08-31T14:07:03.208Z,8.63
2018-08-31T14:11:58.004Z,8.57
2018-08-31T14:16:52.885Z,8.07
2018-08-31T14:21:47.752Z,7.93
2018-08-31T14:26:42.615Z,7.40
2018-08-31T14:31:37.487Z,7.00
2018-08-31T14:36:32.331Z,7.33
2018-08-31T14:41:27.224Z,7.30
2018-08-31T14:46:22.226Z,6.80
2018-08-31T14:51:17.125Z,6.77
2018-08-31T14:56:11.977Z,5.97
2018-08-31T15:01:07.061Z,5.00
2018-08-31T15:06:02.082Z,5.33
2018-08-31T15:10:56.857Z,5.00
2018-08-31T15:15:51.826Z,5.67
2018-08-31T15:20:46.698Z,6.40
2018-08-31T15:25:41.607Z,6.53
2018-08-31T15:30:36.439Z,7.13
2018-08-31T15:35:31.345Z,8.33
2018-08-31T15:40:26.286Z,7.77
2018-08-31T15:45:21.106Z,8.40
2018-08-31T15:50:15.923Z,7.77
2018-08-31T15:55:10.817Z,8.40
2018-08-31T16:00:06.581Z,7.70
2018-08-31T16:05:01.574Z,8.97
2018-08-31T16:09:56.381Z,8.40
2018-08-31T16:14:51.167Z,8.47
2018-08-31T16:19:46.029Z,8.13
2018-08-31T16:24:40.839Z,8.70
2018-08-31T16:29:35.637Z,8.03
2018-08-31T16:34:30.459Z,8.10
2018-08-31T16:39:25.261Z,7.90
2018-08-31T16:44:20.102Z,7.60
2018-08-31T16:49:14.955Z,8.37
2018-08-31T16:54:10.384Z,8.77
2018-08-31T16:59:05.486Z,8.77
2018-08-31T17:04:00.309Z,8.90
2018-08-31T17:08:55.175Z,9.10
2018-08-31T17:13:49.997Z,9.17
2018-08-31T17:18:44.837Z,9.63
2018-08-31T17:23:39.753Z,10.20
2018-08-31T17:28:39.782Z,9.87
2018-08-31T17:33:39.616Z,10.40
2018-08-31T17:38:34.501Z,10.03
2018-08-31T17:43:29.424Z,9.57
2018-08-31T17:48:24.338Z,11.03
2018-08-31T17:53:19.285Z,11.03
2018-08-31T17:58:14.177Z,11.03
2018-08-31T18:03:09.132Z,12.03
2018-08-31T18:08:04.097Z,12.43
2018-08-31T18:12:59.166Z,11.17
2018-08-31T18:17:54.120Z,12.37
2018-08-31T18:22:49.068Z,11.87
2018-08-31T18:27:44.059Z,12.83
2018-08-31T18:32:40.897Z,11.47
2018-08-31T18:37:34.428Z,11.73
2018-08-31T18:42:29.760Z,12.10
2018-08-31T18:47:24.829Z,13.20
2018-08-31T18:52:19.894Z,10.13
2018-08-31T18:57:14.810Z,3.93
2018-08-31T19:02:09.763Z,4.27
2018-08-31T19:07:04.798Z,2.00
2018-08-31T19:11:59.836Z,2.40
2018-08-31T19:16:54.806Z,2.90
2018-08-31T19:21:49.790Z,3.00
2018-08-31T19:26:44.722Z,5.50
2018-08-31T19:31:39.647Z,11.20
2018-08-31T19:36:34.538Z,9.87
2018-08-31T19:41:29.520Z,11.20
2018-08-31T19:46:24.421Z,11.50
2018-08-31T19:51:19.326Z,10.53
2018-08-31T19:56:14.261Z,12.43
2018-08-31T20:01:09.132Z,10.83
2018-08-31T20:06:04.062Z,12.33
2018-08-31T20:10:58.888Z,11.07
2018-08-31T20:15:53.759Z,10.47
2018-08-31T20:20:48.700Z,12.10
2018-08-31T20:25:43.803Z,11.40
2018-08-31T20:30:38.675Z,9.87
2018-08-31T20:35:33.474Z,11.27
2018-08-31T20:40:28.287Z,10.80
2018-08-31T20:45:23.153Z,11.67
2018-08-31T20:50:17.983Z,11.07
2018-08-31T20:55:12.780Z,10.03
2018-08-31T21:00:08.170Z,10.60
2018-08-31T21:05:03.012Z,11.17
2018-08-31T21:09:57.807Z,10.33
2018-08-31T21:14:52.665Z,10.93
2018-08-31T21:19:47.476Z,11.50
2018-08-31T21:24:42.427Z,11.60
2018-08-31T21:29:37.220Z,11.60
2018-08-31T21:34:32.010Z,10.50
2018-08-31T21:39:26.805Z,11.70
2018-08-31T21:44:21.660Z,11.63
2018-08-31T21:49:16.489Z,10.83
2018-08-31T21:54:11.298Z,11.20
2018-08-31T21:59:06.281Z,11.30
2018-08-31T22:04:01.127Z,11.27
2018-08-31T22:08:56.021Z,12.67
2018-08-31T22:13:50.807Z,11.97
2018-08-31T22:18:45.641Z,11.47
2018-08-31T22:23:40.430Z,11.57
2018-08-31T22:28:35.242Z,11.77
2018-08-31T22:33:30.138Z,12.57
2018-08-31T22:38:24.961Z,12.47
2018-08-31T22:43:20.797Z,12.27
2018-08-31T22:48:15.625Z,12.13
2018-08-31T22:53:10.441Z,12.27
2018-08-31T22:58:05.305Z,12.80
2018-08-31T23:03:00.157Z,11.10
2018-08-31T23:08:00.083Z,12.27
2018-08-31T23:12:54.952Z,12.17
2018-08-31T23:17:51.801Z,12.60
2018-08-31T23:22:46.685Z,12.07
2018-08-31T23:27:41.519Z,12.10
2018-08-31T23:32:36.369Z,12.63
2018-08-31T23:37:31.214Z,12.13
2018-08-31T23:42:26.062Z,11.87
2018-08-31T23:47:20.874Z,13.03
2018-08-31T23:52:15.713Z,12.60
2018-08-31T23:57:10.582Z,12.27
